Time;durP1;ratioP1;P1;durP2;ratioP2;P2;SDS_P1;SDS_P2;PMS_P1;PMS_P2;Temp;Humidity;BMP_temperature;BMP_pressure;BME280_temperature;BME280_humidity;BME280_pressure;Samples;Min_cycle;Max_cycle;Signal;HPM_P1;HPM_P2
2023/12/24 00:00:01;;;;;;;20.73;3.57;;;9.20;99.90;;;;;;5014391;28;20413;-92
2023/12/24 00:02:27;;;;;;;20.67;3.50;;;9.30;99.90;;;;;;5014562;28;20793;-89
2023/12/24 00:04:56;;;;;;;20.33;3.65;;;9.30;99.90;;;;;;5014740;28;20488;-92
2023/12/24 00:07:24;;;;;;;21.20;3.92;;;9.20;99.90;;;;;;5013901;28;20422;-94
2023/12/24 00:09:56;;;;;;;20.70;3.53;;;9.40;99.90;;;;;;5015907;28;20912;-94
2023/12/24 00:12:22;;;;;;;23.02;4.03;;;9.20;99.90;;;;;;5013836;28;20432;-90
2023/12/24 00:14:47;;;;;;;20.60;3.80;;;9.50;99.90;;;;;;5014421;28;20900;-90
2023/12/24 00:17:13;;;;;;;20.23;4.10;;;9.30;99.90;;;;;;5010287;28;20403;-90
2023/12/24 00:19:39;;;;;;;19.33;3.30;;;9.30;99.90;;;;;;5010992;28;20512;-87
2023/12/24 00:22:07;;;;;;;21.48;4.00;;;9.40;99.90;;;;;;5010815;28;20885;-88
2023/12/24 00:24:33;;;;;;;21.13;3.50;;;9.30;99.90;;;;;;5010973;28;20411;-89
2023/12/24 00:26:59;;;;;;;20.38;3.20;;;9.30;99.90;;;;;;5010624;28;20980;-91
2023/12/24 00:29:25;;;;;;;21.38;3.42;;;9.40;99.90;;;;;;5010728;28;20411;-89
2023/12/24 00:31:53;;;;;;;19.77;3.40;;;9.20;99.90;;;;;;5011744;28;20438;-90
2023/12/24 00:34:22;;;;;;;22.80;3.85;;;9.30;99.90;;;;;;5008666;28;20473;-94
2023/12/24 00:36:48;;;;;;;17.33;2.92;;;9.40;99.90;;;;;;5011848;28;20442;-90
2023/12/24 00:39:13;;;;;;;22.98;4.03;;;9.40;99.90;;;;;;5009942;28;20407;-93
2023/12/24 00:41:39;;;;;;;18.70;3.55;;;9.40;99.90;;;;;;5011071;28;20525;-91
2023/12/24 00:44:05;;;;;;;20.00;3.57;;;9.80;99.90;;;;;;5010967;28;20418;-89
2023/12/24 00:46:31;;;;;;;18.17;3.63;;;9.50;99.90;;;;;;5010275;28;20931;-90
2023/12/24 00:48:57;;;;;;;24.50;3.70;;;9.30;99.90;;;;;;5010664;28;20491;-88
2023/12/24 00:51:22;;;;;;;19.10;3.50;;;9.40;99.90;;;;;;5027478;28;20461;-91
2023/12/24 00:53:48;;;;;;;27.13;4.07;;;9.60;99.90;;;;;;5027602;28;20411;-86
2023/12/24 00:56:14;;;;;;;22.87;4.07;;;9.40;99.90;;;;;;5025350;28;20865;-92
2023/12/24 00:58:40;;;;;;;24.17;4.03;;;9.30;99.90;;;;;;5010799;28;20427;-88
2023/12/24 01:01:05;;;;;;;22.90;3.90;;;9.30;99.90;;;;;;5009592;28;20764;-93
2023/12/24 01:03:31;;;;;;;25.67;4.50;;;9.60;99.90;;;;;;5010689;28;20519;-90
2023/12/24 01:05:56;;;;;;;21.83;3.80;;;9.50;99.90;;;;;;5009997;28;20959;-88
2023/12/24 01:08:22;;;;;;;20.40;3.63;;;9.30;99.90;;;;;;5009553;28;20415;-89
2023/12/24 01:10:48;;;;;;;28.67;4.72;;;9.30;99.90;;;;;;5010413;28;20402;-91
2023/12/24 01:13:19;;;;;;;25.92;3.95;;;9.40;99.90;;;;;;5026268;28;20436;-90
2023/12/24 01:15:48;;;;;;;26.27;4.30;;;9.40;99.90;;;;;;5009988;28;20436;-90
2023/12/24 01:18:14;;;;;;;18.95;4.18;;;9.30;99.90;;;;;;5008851;28;20399;-89
2023/12/24 01:20:41;;;;;;;16.27;3.90;;;9.40;99.90;;;;;;5010043;28;20417;-87
2023/12/24 01:23:06;;;;;;;21.35;4.57;;;9.30;99.90;;;;;;5009714;28;20937;-88
2023/12/24 01:25:33;;;;;;;21.48;4.20;;;9.70;99.90;;;;;;5010702;28;20506;-89
2023/12/24 01:27:58;;;;;;;20.25;4.80;;;9.20;99.90;;;;;;5027669;28;20810;-87
2023/12/24 01:30:24;;;;;;;21.10;4.57;;;9.30;99.90;;;;;;5008619;28;20415;-93
2023/12/24 01:32:50;;;;;;;24.13;5.15;;;9.30;99.90;;;;;;5010801;28;20416;-93
2023/12/24 01:35:16;;;;;;;21.65;5.13;;;9.40;99.90;;;;;;5009333;28;20886;-88
2023/12/24 01:37:42;;;;;;;19.67;4.43;;;9.60;99.90;;;;;;5010768;28;20453;-88
2023/12/24 01:40:11;;;;;;;21.67;5.37;;;9.30;99.90;;;;;;5025237;28;20441;-93
2023/12/24 01:42:44;;;;;;;21.90;5.28;;;9.30;99.90;;;;;;5010749;28;20435;-89
2023/12/24 01:45:10;;;;;;;23.00;4.95;;;9.30;99.90;;;;;;5012276;28;20770;-88
2023/12/24 01:47:42;;;;;;;24.30;4.87;;;9.30;99.90;;;;;;5013002;28;20407;-92
2023/12/24 01:50:11;;;;;;;18.60;4.85;;;9.30;99.90;;;;;;5015227;28;20419;-93
2023/12/24 01:52:38;;;;;;;17.88;4.18;;;9.50;99.90;;;;;;5012150;28;20446;-88
2023/12/24 01:55:08;;;;;;;25.02;5.18;;;9.30;99.90;;;;;;5013758;28;20403;-93
2023/12/24 01:57:34;;;;;;;23.13;4.10;;;9.30;99.90;;;;;;5012620;28;20411;-87
2023/12/24 02:00:00;;;;;;;18.05;4.00;;;9.30;99.90;;;;;;5013950;28;20533;-90
2023/12/24 02:02:28;;;;;;;23.05;4.85;;;9.60;99.90;;;;;;5013254;28;20437;-88
2023/12/24 02:04:54;;;;;;;23.27;4.35;;;9.30;99.90;;;;;;5029269;28;20413;-88
2023/12/24 02:07:24;;;;;;;25.85;5.13;;;9.40;99.90;;;;;;5013550;28;20840;-91
2023/12/24 02:09:50;;;;;;;24.20;5.05;;;9.30;99.90;;;;;;5012278;28;20407;-89
2023/12/24 02:12:15;;;;;;;24.40;5.30;;;9.40;99.90;;;;;;5014137;28;20399;-90
2023/12/24 02:14:41;;;;;;;22.60;4.67;;;9.40;99.90;;;;;;5012135;28;20400;-87
2023/12/24 02:17:07;;;;;;;26.23;5.33;;;9.60;99.90;;;;;;5013877;28;20508;-89
2023/12/24 02:19:33;;;;;;;26.85;4.80;;;9.40;99.90;;;;;;5012369;28;20411;-88
2023/12/24 02:21:59;;;;;;;26.55;4.70;;;9.40;99.90;;;;;;5013149;28;20431;-89
2023/12/24 02:24:24;;;;;;;25.38;4.57;;;9.40;99.90;;;;;;5012936;28;21001;-87
2023/12/24 02:27:05;;;;;;;25.37;4.10;;;9.40;99.90;;;;;;5012304;28;20461;-89
2023/12/24 02:29:41;;;;;;;26.13;4.20;;;9.40;99.90;;;;;;5013289;28;20419;-88
2023/12/24 02:32:17;;;;;;;21.50;3.83;;;9.40;99.90;;;;;;5012237;28;20740;-89
2023/12/24 02:34:48;;;;;;;25.83;4.25;;;9.40;99.90;;;;;;5013500;28;20434;-89
2023/12/24 02:37:14;;;;;;;22.63;4.22;;;9.40;99.90;;;;;;5012439;28;20524;-88
2023/12/24 02:39:41;;;;;;;23.08;4.57;;;9.40;99.90;;;;;;5012641;28;20422;-86
2023/12/24 02:42:07;;;;;;;21.47;3.97;;;9.40;99.90;;;;;;5028870;28;20427;-88
2023/12/24 02:44:34;;;;;;;23.50;4.60;;;9.50;99.90;;;;;;5027401;28;20454;-89
2023/12/24 02:47:00;;;;;;;25.47;4.87;;;9.40;99.90;;;;;;5029405;28;20411;-90
2023/12/24 02:49:26;;;;;;;27.03;5.60;;;9.50;99.90;;;;;;5027299;28;20434;-87
2023/12/24 02:51:51;;;;;;;24.02;5.07;;;9.60;99.90;;;;;;5013170;28;20419;-92
2023/12/24 02:54:17;;;;;;;26.90;5.78;;;9.70;99.90;;;;;;5012423;28;20410;-87
2023/12/24 02:56:43;;;;;;;21.13;4.90;;;9.50;99.90;;;;;;5027759;28;22032;-88
2023/12/24 02:59:08;;;;;;;17.70;3.95;;;9.60;99.90;;;;;;5011811;28;20410;-91
2023/12/24 03:01:34;;;;;;;27.08;4.70;;;9.50;99.90;;;;;;5028019;28;20911;-91
2023/12/24 03:04:01;;;;;;;19.47;4.40;;;9.40;99.90;;;;;;5029034;28;20459;-88
2023/12/24 03:06:27;;;;;;;23.63;5.28;;;9.70;99.90;;;;;;5026435;28;20410;-88
2023/12/24 03:08:53;;;;;;;19.37;4.73;;;9.40;99.90;;;;;;5028894;28;20498;-94
2023/12/24 03:11:18;;;;;;;19.43;3.93;;;9.80;99.90;;;;;;5011297;28;20796;-87
2023/12/24 03:13:44;;;;;;;19.42;3.90;;;9.30;99.90;;;;;;5011642;28;20982;-93
2023/12/24 03:16:10;;;;;;;19.75;3.88;;;9.70;99.90;;;;;;5010956;28;20417;-89
2023/12/24 03:18:35;;;;;;;17.47;3.60;;;9.80;99.90;;;;;;5027614;28;20762;-89
2023/12/24 03:21:02;;;;;;;14.35;3.08;;;9.80;99.90;;;;;;5011324;28;20450;-89
2023/12/24 03:23:27;;;;;;;12.48;3.03;;;9.60;99.90;;;;;;5010712;28;20783;-88
2023/12/24 03:25:53;;;;;;;13.07;2.80;;;9.70;99.90;;;;;;5011871;28;20490;-91
2023/12/24 03:28:19;;;;;;;16.00;2.83;;;9.50;99.90;;;;;;5009958;28;20457;-88
2023/12/24 03:30:45;;;;;;;15.48;2.83;;;10.00;99.90;;;;;;5012266;28;20789;-88
2023/12/24 03:33:10;;;;;;;11.20;2.87;;;9.80;99.90;;;;;;5010920;28;20501;-88
2023/12/24 03:35:36;;;;;;;14.70;3.33;;;9.70;99.90;;;;;;5011286;28;20945;-86
2023/12/24 03:38:02;;;;;;;12.23;3.13;;;10.00;99.90;;;;;;5027968;28;20399;-87
2023/12/24 03:40:28;;;;;;;11.15;3.13;;;9.70;99.90;;;;;;5010513;28;20419;-87
2023/12/24 03:42:53;;;;;;;10.90;3.33;;;9.70;99.90;;;;;;5027731;28;20438;-92
2023/12/24 03:45:19;;;;;;;8.98;2.90;;;9.80;99.90;;;;;;5009950;28;20411;-90
2023/12/24 03:47:44;;;;;;;9.40;3.15;;;10.10;99.90;;;;;;5011622;28;20476;-88
2023/12/24 03:50:10;;;;;;;9.33;2.73;;;9.90;99.90;;;;;;5009605;28;20411;-93
2023/12/24 03:52:36;;;;;;;10.85;2.60;;;9.70;99.90;;;;;;5011373;28;21072;-90
2023/12/24 03:55:01;;;;;;;9.60;2.80;;;9.70;99.90;;;;;;5010333;28;20413;-88
2023/12/24 03:57:27;;;;;;;9.60;2.47;;;9.80;99.90;;;;;;5027938;28;20464;-87
2023/12/24 03:59:53;;;;;;;10.18;2.58;;;9.80;99.90;;;;;;5011614;28;20434;-88
2023/12/24 04:02:18;;;;;;;8.93;2.30;;;9.80;99.90;;;;;;5009633;28;20435;-89
2023/12/24 04:04:47;;;;;;;7.88;2.10;;;9.80;99.90;;;;;;5027926;28;20973;-93
2023/12/24 04:07:15;;;;;;;7.45;2.42;;;9.90;99.90;;;;;;5009044;28;20442;-90
2023/12/24 04:09:42;;;;;;;9.27;2.53;;;10.10;99.90;;;;;;5010865;28;20770;-89
2023/12/24 04:12:09;;;;;;;8.52;2.42;;;9.80;99.90;;;;;;5009249;28;20421;-91
2023/12/24 04:14:38;;;;;;;8.27;2.78;;;9.80;99.90;;;;;;5011189;28;20410;-86
2023/12/24 04:17:05;;;;;;;10.60;3.60;;;10.10;99.90;;;;;;5009919;28;20427;-88
2023/12/24 04:19:30;;;;;;;9.27;3.42;;;9.80;99.90;;;;;;5026551;28;20839;-89
2023/12/24 04:21:56;;;;;;;12.27;4.40;;;9.80;99.90;;;;;;5011003;28;20521;-87
2023/12/24 04:24:22;;;;;;;13.30;4.50;;;9.80;99.90;;;;;;5009273;28;20438;-88
2023/12/24 04:26:48;;;;;;;14.82;4.75;;;10.00;99.90;;;;;;5010894;28;20754;-87
2023/12/24 04:29:13;;;;;;;15.98;5.22;;;10.40;99.90;;;;;;5010041;28;20415;-91
2023/12/24 04:31:39;;;;;;;14.20;4.93;;;9.80;99.90;;;;;;5010670;28;20443;-92
2023/12/24 04:34:08;;;;;;;18.50;5.73;;;10.10;99.90;;;;;;5009196;28;20411;-92
2023/12/24 04:36:34;;;;;;;12.70;5.17;;;10.00;99.90;;;;;;5010274;28;20403;-88
2023/12/24 04:39:01;;;;;;;16.60;5.60;;;10.30;99.90;;;;;;5010587;28;20442;-92
2023/12/24 04:41:28;;;;;;;15.38;6.18;;;9.90;99.90;;;;;;5010715;28;20403;-89
2023/12/24 04:43:54;;;;;;;14.70;5.05;;;9.90;99.90;;;;;;5010903;28;20456;-88
2023/12/24 04:46:20;;;;;;;16.48;5.50;;;9.90;99.90;;;;;;5025260;28;20403;-87
2023/12/24 04:48:45;;;;;;;20.25;5.60;;;9.90;99.90;;;;;;5011015;28;20410;-91
2023/12/24 04:51:11;;;;;;;22.97;6.37;;;10.00;99.90;;;;;;5009093;28;20407;-90
2023/12/24 04:53:37;;;;;;;21.13;6.37;;;10.00;99.90;;;;;;5010579;28;20414;-91
2023/12/24 04:56:03;;;;;;;21.50;6.27;;;10.00;99.90;;;;;;5009605;28;20509;-89
2023/12/24 04:58:29;;;;;;;19.73;6.18;;;10.00;99.90;;;;;;5009714;28;20501;-91
2023/12/24 05:00:56;;;;;;;22.03;6.27;;;10.00;99.90;;;;;;5011128;28;20439;-87
2023/12/24 05:03:22;;;;;;;22.35;6.25;;;10.00;99.90;;;;;;5009067;28;20480;-92
2023/12/24 05:05:48;;;;;;;23.00;7.03;;;10.00;99.90;;;;;;5010232;28;20988;-89
2023/12/24 05:08:14;;;;;;;23.43;6.67;;;10.40;99.90;;;;;;5008630;28;20411;-94
2023/12/24 05:10:39;;;;;;;21.60;6.00;;;10.00;99.90;;;;;;5010907;28;20414;-87
2023/12/24 05:13:06;;;;;;;22.27;6.25;;;10.30;99.90;;;;;;5025336;28;20789;-87
2023/12/24 05:15:31;;;;;;;23.30;5.43;;;10.10;99.90;;;;;;5010417;28;20411;-89
2023/12/24 05:17:57;;;;;;;25.93;5.67;;;10.40;99.90;;;;;;5010910;28;20403;-88
2023/12/24 05:20:22;;;;;;;25.73;5.93;;;10.10;99.90;;;;;;5011609;28;20415;-89
2023/12/24 05:22:48;;;;;;;21.77;5.80;;;10.10;99.90;;;;;;5014349;28;20480;-87
2023/12/24 05:25:14;;;;;;;22.40;5.10;;;10.30;99.90;;;;;;5012872;28;20533;-90
2023/12/24 05:27:40;;;;;;;22.40;4.77;;;10.10;99.90;;;;;;5015339;28;20407;-93
2023/12/24 05:30:06;;;;;;;23.45;5.00;;;10.30;99.90;;;;;;5012271;28;20411;-87
2023/12/24 05:32:32;;;;;;;23.13;5.60;;;10.10;99.90;;;;;;5024627;28;20779;-87
2023/12/24 05:34:58;;;;;;;20.53;4.83;;;10.20;99.90;;;;;;5013469;28;20706;-90
2023/12/24 05:37:23;;;;;;;21.03;5.10;;;10.20;99.90;;;;;;5026773;28;20481;-89
2023/12/24 05:39:49;;;;;;;19.15;4.10;;;10.20;99.90;;;;;;5034149;28;20405;-88
2023/12/24 05:42:15;;;;;;;24.10;4.80;;;10.20;99.90;;;;;;5025045;28;20967;-88
2023/12/24 05:44:40;;;;;;;20.60;3.73;;;10.50;99.90;;;;;;5013956;28;20399;-88
2023/12/24 05:47:08;;;;;;;23.58;4.07;;;10.20;99.90;;;;;;5012745;28;20431;-93
2023/12/24 05:49:37;;;;;;;22.55;3.63;;;10.20;99.90;;;;;;5015033;28;20443;-89
2023/12/24 05:52:03;;;;;;;19.15;3.00;;;10.40;99.90;;;;;;5029813;28;20435;-94
2023/12/24 05:54:29;;;;;;;20.55;3.95;;;10.30;99.90;;;;;;5014157;28;20577;-87
2023/12/24 05:56:54;;;;;;;20.53;3.43;;;10.50;99.90;;;;;;5013439;28;20410;-88
2023/12/24 05:59:22;;;;;;;23.40;3.70;;;10.00;99.90;;;;;;5013395;28;20447;-90
2023/12/24 06:01:47;;;;;;;20.70;3.42;;;10.00;99.90;;;;;;5014436;28;20461;-89
2023/12/24 06:04:13;;;;;;;17.70;3.28;;;10.80;99.90;;;;;;5029762;28;20411;-91
2023/12/24 06:06:42;;;;;;;23.57;3.83;;;10.00;99.90;;;;;;5014138;28;20461;-86
2023/12/24 06:09:07;;;;;;;23.73;3.47;;;10.70;99.90;;;;;;5028641;28;20450;-91
2023/12/24 06:11:33;;;;;;;16.63;3.22;;;10.40;99.90;;;;;;5030734;28;20446;-90
2023/12/24 06:13:59;;;;;;;24.45;3.70;;;10.70;99.90;;;;;;5012182;28;20411;-90
2023/12/24 06:16:24;;;;;;;22.47;3.30;;;10.40;99.90;;;;;;5013157;28;20494;-94
2023/12/24 06:18:53;;;;;;;19.77;3.17;;;10.90;99.90;;;;;;5010354;28;20403;-93
2023/12/24 06:21:25;;;;;;;18.00;3.20;;;10.60;99.90;;;;;;5013368;28;20469;-91
2023/12/24 06:23:52;;;;;;;18.30;3.60;;;10.40;99.90;;;;;;5014055;28;20502;-92
2023/12/24 06:26:18;;;;;;;20.30;3.08;;;10.80;99.90;;;;;;5028493;28;20407;-91
2023/12/24 06:28:44;;;;;;;18.10;3.27;;;10.40;99.90;;;;;;5012265;28;20407;-91
2023/12/24 06:31:09;;;;;;;20.70;3.20;;;10.40;99.90;;;;;;5010064;28;20407;-88
2023/12/24 06:33:35;;;;;;;19.10;3.33;;;10.50;99.90;;;;;;5013068;28;20411;-88
2023/12/24 06:36:01;;;;;;;19.35;3.90;;;10.50;99.90;;;;;;5027436;28;20416;-88
2023/12/24 06:38:27;;;;;;;22.80;4.03;;;10.50;99.90;;;;;;5012333;28;20403;-88
2023/12/24 06:40:52;;;;;;;19.80;3.80;;;10.90;99.90;;;;;;5010815;28;20419;-87
2023/12/24 06:43:18;;;;;;;18.50;3.70;;;10.80;99.90;;;;;;5011129;28;20458;-88
2023/12/24 06:45:44;;;;;;;22.58;3.75;;;10.50;99.90;;;;;;5012974;28;20418;-91
2023/12/24 06:48:10;;;;;;;17.33;3.40;;;10.50;99.90;;;;;;5011658;28;20484;-87
2023/12/24 06:50:36;;;;;;;19.90;3.30;;;10.60;99.90;;;;;;5011403;28;20438;-89
2023/12/24 06:53:01;;;;;;;20.97;3.50;;;10.40;99.90;;;;;;5010762;28;20426;-88
2023/12/24 06:55:27;;;;;;;17.48;3.53;;;10.50;99.90;;;;;;5012456;28;20613;-88
2023/12/24 06:57:53;;;;;;;20.77;2.67;;;10.70;99.90;;;;;;5011535;28;20821;-93
2023/12/24 07:00:19;;;;;;;15.47;2.93;;;10.60;99.90;;;;;;5012188;28;20403;-88
2023/12/24 07:02:44;;;;;;;19.77;2.97;;;10.50;99.90;;;;;;5010885;28;20953;-89
2023/12/24 07:05:10;;;;;;;18.15;3.03;;;10.50;99.90;;;;;;5010989;28;20415;-88
2023/12/24 07:07:36;;;;;;;16.70;2.35;;;10.30;99.90;;;;;;5028714;28;20396;-88
2023/12/24 07:10:02;;;;;;;15.47;2.20;;;10.80;99.90;;;;;;5011241;28;20466;-91
2023/12/24 07:12:29;;;;;;;19.65;2.50;;;10.60;99.90;;;;;;5013073;28;20797;-90
2023/12/24 07:14:55;;;;;;;20.80;2.80;;;10.60;99.90;;;;;;5011278;28;20411;-90
2023/12/24 07:17:20;;;;;;;15.53;2.83;;;10.60;99.90;;;;;;5016460;28;20417;-89
2023/12/24 07:19:46;;;;;;;19.60;2.35;;;10.70;99.90;;;;;;5013846;28;20405;-95
2023/12/24 07:22:15;;;;;;;13.70;1.83;;;10.80;99.90;;;;;;5015679;28;20924;-87
2023/12/24 07:24:41;;;;;;;18.63;2.35;;;10.70;99.90;;;;;;5013504;28;20497;-87
2023/12/24 07:27:07;;;;;;;15.82;2.55;;;10.60;99.90;;;;;;5013856;28;20841;-87
2023/12/24 07:29:32;;;;;;;18.20;2.37;;;10.70;99.90;;;;;;5015657;28;20413;-90
2023/12/24 07:31:58;;;;;;;14.50;2.10;;;10.70;99.90;;;;;;5013743;28;20474;-90
2023/12/24 07:34:24;;;;;;;19.07;2.20;;;10.80;99.90;;;;;;5015631;28;20413;-88
2023/12/24 07:36:49;;;;;;;16.75;2.70;;;10.80;99.90;;;;;;5013494;28;20412;-88
2023/12/24 07:39:18;;;;;;;20.77;2.97;;;10.70;99.90;;;;;;5014598;28;20414;-92
2023/12/24 07:41:44;;;;;;;19.25;2.35;;;11.00;99.90;;;;;;5013673;28;20774;-87
2023/12/24 07:44:13;;;;;;;17.90;2.75;;;10.80;99.90;;;;;;5014544;28;20402;-94
2023/12/24 07:46:38;;;;;;;20.30;3.00;;;10.80;99.90;;;;;;5014255;28;20418;-88
2023/12/24 07:49:04;;;;;;;17.13;3.33;;;10.80;99.90;;;;;;5013797;28;20413;-88
2023/12/24 07:51:30;;;;;;;19.30;3.08;;;11.20;99.90;;;;;;5014463;28;20401;-87
2023/12/24 07:53:55;;;;;;;19.20;2.97;;;11.50;99.90;;;;;;5012892;28;20401;-88
2023/12/24 07:56:21;;;;;;;18.77;3.08;;;10.90;99.90;;;;;;5014392;28;20884;-87
2023/12/24 07:58:46;;;;;;;23.10;3.92;;;11.20;99.90;;;;;;5030735;28;20406;-88
2023/12/24 08:01:12;;;;;;;20.93;3.20;;;10.90;99.90;;;;;;5029719;28;20413;-86
2023/12/24 08:03:38;;;;;;;22.85;3.28;;;11.00;99.90;;;;;;5013460;28;20457;-92
2023/12/24 08:06:04;;;;;;;20.97;3.30;;;10.80;99.90;;;;;;5014053;28;20401;-89
2023/12/24 08:08:29;;;;;;;22.40;3.47;;;10.80;99.90;;;;;;5013266;28;20479;-88
2023/12/24 08:10:55;;;;;;;18.25;3.10;;;11.00;99.90;;;;;;5012528;28;20773;-87
2023/12/24 08:13:21;;;;;;;19.73;3.30;;;10.80;99.90;;;;;;5013387;28;20802;-88
2023/12/24 08:15:46;;;;;;;16.63;2.50;;;10.90;99.90;;;;;;5011609;28;20918;-88
2023/12/24 08:18:13;;;;;;;21.75;2.95;;;10.90;99.90;;;;;;5014028;28;20486;-89
2023/12/24 08:20:39;;;;;;;18.35;3.13;;;10.90;99.90;;;;;;5012692;28;20497;-88
2023/12/24 08:23:07;;;;;;;18.13;2.72;;;10.90;99.90;;;;;;5013410;28;21010;-86
2023/12/24 08:25:33;;;;;;;17.67;2.90;;;10.90;99.90;;;;;;5013437;28;20459;-86
2023/12/24 08:27:59;;;;;;;21.40;3.10;;;10.90;99.90;;;;;;5012394;28;20777;-88
2023/12/24 08:30:25;;;;;;;21.17;3.53;;;10.60;99.90;;;;;;5014810;28;20424;-88
2023/12/24 08:32:51;;;;;;;23.33;3.28;;;11.10;99.90;;;;;;5012950;28;20405;-92
2023/12/24 08:35:17;;;;;;;20.13;3.13;;;11.00;99.90;;;;;;5014877;28;20446;-87
2023/12/24 08:37:42;;;;;;;16.75;2.50;;;11.00;99.90;;;;;;5012449;28;20398;-91
2023/12/24 08:40:08;;;;;;;18.97;3.20;;;11.00;99.90;;;;;;5014228;28;20414;-87
2023/12/24 08:42:34;;;;;;;17.45;3.20;;;11.00;99.90;;;;;;5011789;28;20428;-89
2023/12/24 08:45:00;;;;;;;19.27;3.35;;;11.10;99.90;;;;;;5013538;28;20931;-88
2023/12/24 08:47:26;;;;;;;23.95;2.45;;;11.00;99.90;;;;;;5013520;28;20464;-89
2023/12/24 08:49:52;;;;;;;22.33;2.58;;;11.10;99.90;;;;;;5013041;28;20413;-86
2023/12/24 08:52:17;;;;;;;18.07;2.23;;;11.10;99.90;;;;;;5013910;28;20417;-88
2023/12/24 08:54:43;;;;;;;17.67;2.42;;;11.00;99.90;;;;;;5013646;28;20997;-91
2023/12/24 08:57:09;;;;;;;15.63;2.13;;;11.10;99.90;;;;;;5018298;28;20418;-88
2023/12/24 08:59:34;;;;;;;17.60;2.43;;;11.10;99.90;;;;;;5032043;28;20420;-86
2023/12/24 09:02:00;;;;;;;17.90;2.37;;;11.30;99.90;;;;;;5017641;28;20858;-88
2023/12/24 09:04:25;;;;;;;15.98;2.47;;;11.20;99.90;;;;;;5017146;28;20757;-88
2023/12/24 09:06:51;;;;;;;18.10;2.47;;;11.20;99.90;;;;;;5017348;28;20443;-89
2023/12/24 09:09:17;;;;;;;14.75;2.30;;;11.20;99.90;;;;;;5033611;28;20401;-87
2023/12/24 09:11:42;;;;;;;17.23;1.73;;;11.20;99.90;;;;;;5016179;28;20412;-87
2023/12/24 09:14:11;;;;;;;14.07;2.13;;;11.50;99.90;;;;;;5017554;28;20417;-92
2023/12/24 09:16:37;;;;;;;16.08;2.25;;;11.30;99.90;;;;;;5012378;28;20407;-89
2023/12/24 09:19:02;;;;;;;14.23;1.87;;;11.90;99.90;;;;;;5030611;28;20411;-88
2023/12/24 09:21:30;;;;;;;15.55;1.75;;;11.80;99.90;;;;;;5011436;28;20537;-89
2023/12/24 09:23:58;;;;;;;13.65;1.73;;;11.40;99.90;;;;;;5013088;28;20979;-90
2023/12/24 09:26:24;;;;;;;16.33;1.90;;;11.40;99.90;;;;;;5013807;28;20403;-90
2023/12/24 09:28:50;;;;;;;15.13;1.73;;;11.40;99.90;;;;;;5013468;28;21090;-88
2023/12/24 09:31:15;;;;;;;13.33;1.70;;;11.70;99.90;;;;;;5013562;28;20426;-94
2023/12/24 09:33:41;;;;;;;15.03;1.90;;;11.50;99.90;;;;;;4996365;28;20421;-89
2023/12/24 09:36:07;;;;;;;15.43;2.10;;;11.50;99.90;;;;;;5014443;28;20457;-88
2023/12/24 09:38:34;;;;;;;14.48;1.52;;;11.50;99.90;;;;;;5012936;28;20989;-89
2023/12/24 09:41:00;;;;;;;17.27;1.92;;;11.50;99.90;;;;;;5013884;28;20402;-92
2023/12/24 09:43:30;;;;;;;17.10;1.90;;;11.50;99.90;;;;;;5010081;28;20435;-89
2023/12/24 09:45:56;;;;;;;11.50;1.48;;;11.60;99.90;;;;;;5010920;28;20838;-88
2023/12/24 09:48:22;;;;;;;14.93;1.65;;;11.80;99.90;;;;;;5013558;28;20414;-87
2023/12/24 09:50:48;;;;;;;16.27;2.22;;;11.60;99.90;;;;;;5013495;28;21251;-89
2023/12/24 09:53:14;;;;;;;11.83;1.53;;;11.60;99.90;;;;;;5013736;28;20429;-93
2023/12/24 09:55:40;;;;;;;16.83;2.10;;;11.60;99.90;;;;;;5012477;28;20461;-90
2023/12/24 09:58:06;;;;;;;15.52;1.90;;;11.60;99.90;;;;;;5013428;28;20406;-87
2023/12/24 10:00:31;;;;;;;11.85;1.77;;;11.60;99.90;;;;;;5012628;28;20407;-89
2023/12/24 10:02:57;;;;;;;13.03;1.30;;;11.90;99.90;;;;;;5013856;28;20511;-89
2023/12/24 10:05:23;;;;;;;14.48;2.00;;;11.70;99.90;;;;;;5012728;28;20405;-87
2023/12/24 10:07:48;;;;;;;8.83;1.53;;;11.90;99.90;;;;;;5012946;28;20945;-89
2023/12/24 10:10:14;;;;;;;11.73;1.80;;;11.60;99.90;;;;;;5013088;28;20435;-88
2023/12/24 10:12:42;;;;;;;15.52;1.80;;;11.70;99.90;;;;;;5028480;28;20477;-89
2023/12/24 10:15:08;;;;;;;14.55;1.63;;;11.70;99.90;;;;;;5032570;28;20410;-88
2023/12/24 10:17:35;;;;;;;13.18;1.50;;;11.70;99.90;;;;;;5014454;28;20406;-89
2023/12/24 10:20:06;;;;;;;13.68;1.35;;;11.70;99.90;;;;;;5016268;28;20405;-89
2023/12/24 10:22:33;;;;;;;11.60;1.10;;;11.70;99.90;;;;;;5015529;28;20815;-90
2023/12/24 10:25:03;;;;;;;11.05;1.27;;;11.80;99.90;;;;;;5016356;28;20548;-88
2023/12/24 10:27:30;;;;;;;11.55;1.40;;;11.80;99.90;;;;;;5016076;28;20424;-89
2023/12/24 10:30:14;;;;;;;13.25;1.55;;;11.80;99.90;;;;;;5015514;28;20891;-89
2023/12/24 10:32:42;;;;;;;11.70;1.27;;;11.90;99.90;;;;;;5016545;28;20983;-89
2023/12/24 10:35:08;;;;;;;11.00;1.23;;;12.10;99.90;;;;;;5015763;28;20389;-89
2023/12/24 10:37:34;;;;;;;12.90;1.50;;;12.20;99.90;;;;;;5018214;28;20405;-90
2023/12/24 10:40:10;;;;;;;14.18;1.60;;;12.00;99.90;;;;;;5015623;28;20424;-88
2023/12/24 10:42:37;;;;;;;10.90;1.00;;;12.10;99.90;;;;;;5016628;28;20429;-93
2023/12/24 10:45:07;;;;;;;10.35;1.20;;;12.30;99.90;;;;;;5032446;28;20924;-90
2023/12/24 10:47:34;;;;;;;11.52;1.17;;;12.10;99.90;;;;;;5015070;28;20409;-90
2023/12/24 10:50:00;;;;;;;13.13;1.25;;;12.30;99.90;;;;;;5016089;28;20409;-89
2023/12/24 10:52:26;;;;;;;12.05;1.08;;;12.10;99.90;;;;;;5014381;28;20401;-92
2023/12/24 10:54:57;;;;;;;12.13;1.30;;;12.20;99.90;;;;;;5016636;28;20966;-92
2023/12/24 10:58:00;;;;;;;11.43;1.20;;;12.30;99.90;;;;;;5014568;28;20760;-89
2023/12/24 11:00:27;;;;;;;11.98;1.40;;;12.10;99.90;;;;;;5015437;28;20495;-91
2023/12/24 11:02:53;;;;;;;11.40;1.30;;;12.00;99.90;;;;;;5016725;28;20437;-88
2023/12/24 11:05:42;;;;;;;12.93;1.23;;;12.10;99.90;;;;;;5015293;28;20428;-90
2023/12/24 11:08:19;;;;;;;11.30;1.45;;;12.00;99.90;;;;;;5013774;28;20428;-90
2023/12/24 11:10:52;;;;;;;12.07;1.63;;;12.20;99.90;;;;;;5014627;28;20425;-90
2023/12/24 11:13:34;;;;;;;12.97;1.37;;;12.40;99.90;;;;;;5015448;28;20401;-94
2023/12/24 11:16:01;;;;;;;15.98;2.25;;;11.90;99.90;;;;;;5016321;28;20449;-91
2023/12/24 11:18:45;;;;;;;12.85;1.55;;;12.20;99.90;;;;;;5046335;28;20416;-90
2023/12/24 11:21:12;;;;;;;14.40;1.35;;;12.00;99.90;;;;;;5015184;28;20413;-90
2023/12/24 11:23:40;;;;;;;10.98;1.30;;;12.00;99.90;;;;;;5046841;28;20503;-91
2023/12/24 11:26:27;;;;;;;12.50;1.27;;;12.10;99.90;;;;;;5015239;28;20478;-90
2023/12/24 11:28:53;;;;;;;12.60;1.20;;;12.00;99.90;;;;;;5014885;28;20413;-91
2023/12/24 11:31:26;;;;;;;14.60;1.90;;;12.00;99.90;;;;;;5013679;28;20417;-91
2023/12/24 11:33:55;;;;;;;9.75;1.52;;;11.90;99.90;;;;;;5015855;28;20525;-91
2023/12/24 11:36:26;;;;;;;11.77;1.30;;;12.20;99.90;;;;;;5013830;28;20922;-90
2023/12/24 11:38:58;;;;;;;13.50;1.35;;;12.20;99.90;;;;;;5048129;28;20448;-90
2023/12/24 11:41:25;;;;;;;8.83;1.47;;;12.10;99.90;;;;;;5013648;28;21056;-93
2023/12/24 11:44:01;;;;;;;11.80;1.58;;;12.10;99.90;;;;;;5032581;28;21251;-89
2023/12/24 11:46:28;;;;;;;11.57;0.95;;;12.10;99.90;;;;;;5035059;28;20412;-90
2023/12/24 11:49:00;;;;;;;10.60;1.35;;;12.20;99.90;;;;;;5034731;28;21007;-92
2023/12/24 11:51:26;;;;;;;11.57;1.23;;;12.20;99.90;;;;;;5034803;28;20403;-89
2023/12/24 11:54:00;;;;;;;10.20;1.20;;;12.20;99.90;;;;;;5020355;28;20393;-93
2023/12/24 11:56:28;;;;;;;12.70;1.30;;;12.20;99.90;;;;;;5015126;28;20409;-90
2023/12/24 11:58:54;;;;;;;9.95;1.10;;;12.10;99.90;;;;;;5014102;28;20811;-90
2023/12/24 12:01:24;;;;;;;13.57;1.05;;;12.30;99.90;;;;;;5014109;28;20413;-92
2023/12/24 12:04:01;;;;;;;10.68;1.63;;;12.50;99.90;;;;;;5014571;28;20997;-91
2023/12/24 12:06:34;;;;;;;11.43;1.17;;;12.30;99.90;;;;;;5013213;28;20459;-90
2023/12/24 12:09:05;;;;;;;12.75;1.38;;;12.30;99.90;;;;;;5031244;28;20409;-92
2023/12/24 12:11:34;;;;;;;11.98;1.55;;;12.30;99.90;;;;;;5014244;28;20416;-92
2023/12/24 12:14:01;;;;;;;12.63;1.30;;;12.30;99.90;;;;;;5014172;28;20920;-90
2023/12/24 12:16:27;;;;;;;11.57;1.08;;;12.30;99.90;;;;;;5011012;28;20415;-93
2023/12/24 12:18:52;;;;;;;12.10;1.83;;;12.30;99.90;;;;;;5010444;28;20909;-92
2023/12/24 12:21:20;;;;;;;15.03;1.83;;;12.30;99.90;;;;;;5010646;28;20418;-92
2023/12/24 12:23:46;;;;;;;11.63;1.30;;;12.10;99.90;;;;;;5010201;28;20439;-90
2023/12/24 12:26:11;;;;;;;12.07;1.38;;;12.30;99.90;;;;;;5012568;28;20890;-92
2023/12/24 12:28:37;;;;;;;13.43;1.40;;;12.30;99.90;;;;;;5009726;28;20763;-93
2023/12/24 12:31:03;;;;;;;14.60;1.60;;;12.40;99.90;;;;;;5027473;28;20423;-91
2023/12/24 12:33:40;;;;;;;13.40;2.03;;;12.30;99.90;;;;;;5010248;28;20758;-93
2023/12/24 12:36:07;;;;;;;12.77;1.40;;;12.50;99.90;;;;;;5010956;28;20419;-91
2023/12/24 12:38:32;;;;;;;10.73;1.10;;;12.30;99.90;;;;;;5010972;28;20489;-92